sensor_id;sensor_type;location;lat;lon;timestamp;pressure;altitude;pressure_sealevel;temperature;humidity
32733;BME280;11867;51.198;11.966;2022-10-16T00:04:25;100131.44;;;17.26;93.46
32733;BME280;11867;51.198;11.966;2022-10-16T00:09:28;100128.69;;;17.18;94.66
32733;BME280;11867;51.198;11.966;2022-10-16T00:14:32;100139.47;;;16.84;98.27
32733;BME280;11867;51.198;11.966;2022-10-16T00:19:35;100126.25;;;17.54;94.46
32733;BME280;11867;51.198;11.966;2022-10-16T00:24:37;100139.06;;;17.21;97.72
32733;BME280;11867;51.198;11.966;2022-10-16T00:29:41;100145.91;;;17.44;96.75
32733;BME280;11867;51.198;11.966;2022-10-16T00:34:44;100142.09;;;17.28;99.13
32733;BME280;11867;51.198;11.966;2022-10-16T00:39:47;100141.59;;;17.64;96.82
32733;BME280;11867;51.198;11.966;2022-10-16T00:44:52;100137.31;;;17.46;96.03
32733;BME280;11867;51.198;11.966;2022-10-16T00:49:58;100126.13;;;17.12;100.00
32733;BME280;11867;51.198;11.966;2022-10-16T00:55:04;100143.81;;;17.03;100.00
32733;BME280;11867;51.198;11.966;2022-10-16T01:00:13;100148.59;;;17.62;95.94
32733;BME280;11867;51.198;11.966;2022-10-16T01:05:17;100144.19;;;17.31;98.45
32733;BME280;11867;51.198;11.966;2022-10-16T01:10:26;100141.88;;;17.42;97.21
32733;BME280;11867;51.198;11.966;2022-10-16T01:15:34;100142.69;;;17.72;93.67
32733;BME280;11867;51.198;11.966;2022-10-16T01:20:46;100153.63;;;17.89;92.94
32733;BME280;11867;51.198;11.966;2022-10-16T01:25:59;100166.41;;;17.64;93.49
32733;BME280;11867;51.198;11.966;2022-10-16T01:31:11;100187.34;;;17.27;95.67
32733;BME280;11867;51.198;11.966;2022-10-16T01:36:21;100181.50;;;17.28;94.89
32733;BME280;11867;51.198;11.966;2022-10-16T01:41:30;100176.91;;;16.85;97.46
32733;BME280;11867;51.198;11.966;2022-10-16T01:46:38;100183.69;;;17.05;96.38
32733;BME280;11867;51.198;11.966;2022-10-16T01:51:44;100171.31;;;17.11;95.21
32733;BME280;11867;51.198;11.966;2022-10-16T01:56:50;100163.84;;;17.21;94.26
32733;BME280;11867;51.198;11.966;2022-10-16T02:01:58;100153.28;;;17.31;94.04
32733;BME280;11867;51.198;11.966;2022-10-16T02:07:02;100157.88;;;17.19;94.22
32733;BME280;11867;51.198;11.966;2022-10-16T02:12:10;100177.06;;;17.36;92.92
32733;BME280;11867;51.198;11.966;2022-10-16T02:17:17;100179.69;;;17.32;93.33
32733;BME280;11867;51.198;11.966;2022-10-16T02:22:23;100188.22;;;16.92;94.73
32733;BME280;11867;51.198;11.966;2022-10-16T02:27:33;100189.06;;;16.58;96.80
32733;BME280;11867;51.198;11.966;2022-10-16T02:32:42;100201.03;;;16.62;96.60
32733;BME280;11867;51.198;11.966;2022-10-16T02:37:46;100198.28;;;16.71;95.59
32733;BME280;11867;51.198;11.966;2022-10-16T02:42:50;100194.41;;;16.54;95.98
32733;BME280;11867;51.198;11.966;2022-10-16T02:47:55;100194.38;;;16.20;98.31
32733;BME280;11867;51.198;11.966;2022-10-16T02:52:58;100193.09;;;16.17;98.56
32733;BME280;11867;51.198;11.966;2022-10-16T02:58:01;100206.03;;;16.34;97.52
32733;BME280;11867;51.198;11.966;2022-10-16T03:03:05;100210.06;;;16.10;98.76
32733;BME280;11867;51.198;11.966;2022-10-16T03:08:07;100202.31;;;16.47;96.96
32733;BME280;11867;51.198;11.966;2022-10-16T03:13:10;100201.75;;;15.84;99.59
32733;BME280;11867;51.198;11.966;2022-10-16T03:18:14;100214.47;;;16.29;98.24
32733;BME280;11867;51.198;11.966;2022-10-16T03:23:17;100220.91;;;16.16;98.64
32733;BME280;11867;51.198;11.966;2022-10-16T03:28:19;100214.69;;;15.84;100.00
32733;BME280;11867;51.198;11.966;2022-10-16T03:33:23;100224.75;;;16.06;99.43
32733;BME280;11867;51.198;11.966;2022-10-16T03:38:26;100221.09;;;16.19;97.89
32733;BME280;11867;51.198;11.966;2022-10-16T03:43:29;100206.69;;;16.22;97.38
32733;BME280;11867;51.198;11.966;2022-10-16T03:48:36;100191.63;;;16.11;97.81
32733;BME280;11867;51.198;11.966;2022-10-16T03:53:38;100198.78;;;16.29;96.79
32733;BME280;11867;51.198;11.966;2022-10-16T03:58:41;100200.84;;;16.06;98.29
32733;BME280;11867;51.198;11.966;2022-10-16T04:03:45;100203.75;;;16.10;97.47
32733;BME280;11867;51.198;11.966;2022-10-16T04:08:48;100203.59;;;16.06;97.38
32733;BME280;11867;51.198;11.966;2022-10-16T04:13:50;100214.91;;;15.96;98.30
32733;BME280;11867;51.198;11.966;2022-10-16T04:18:54;100236.41;;;15.94;97.74
32733;BME280;11867;51.198;11.966;2022-10-16T04:23:57;100243.00;;;15.93;97.15
32733;BME280;11867;51.198;11.966;2022-10-16T04:29:00;100241.53;;;15.78;97.42
32733;BME280;11867;51.198;11.966;2022-10-16T04:34:04;100245.00;;;15.70;98.71
32733;BME280;11867;51.198;11.966;2022-10-16T04:39:06;100262.31;;;15.70;98.50
32733;BME280;11867;51.198;11.966;2022-10-16T04:44:09;100279.56;;;15.62;100.00
32733;BME280;11867;51.198;11.966;2022-10-16T04:49:13;100286.31;;;15.56;100.00
32733;BME280;11867;51.198;11.966;2022-10-16T04:54:16;100279.03;;;15.83;100.00
32733;BME280;11867;51.198;11.966;2022-10-16T04:59:19;100301.13;;;16.00;99.59
32733;BME280;11867;51.198;11.966;2022-10-16T05:04:24;100298.28;;;16.23;96.96
32733;BME280;11867;51.198;11.966;2022-10-16T05:09:26;100284.38;;;16.37;96.09
32733;BME280;11867;51.198;11.966;2022-10-16T05:14:29;100306.88;;;16.30;96.47
32733;BME280;11867;51.198;11.966;2022-10-16T05:19:33;100306.44;;;15.34;100.00
32733;BME280;11867;51.198;11.966;2022-10-16T05:24:36;100311.69;;;16.24;98.55
32733;BME280;11867;51.198;11.966;2022-10-16T05:29:38;100312.53;;;16.25;97.29
32733;BME280;11867;51.198;11.966;2022-10-16T05:34:43;100296.81;;;16.25;97.45
32733;BME280;11867;51.198;11.966;2022-10-16T05:39:45;100303.97;;;16.35;96.52
32733;BME280;11867;51.198;11.966;2022-10-16T05:44:48;100315.31;;;15.93;100.00
32733;BME280;11867;51.198;11.966;2022-10-16T05:49:52;100319.84;;;16.38;97.09
32733;BME280;11867;51.198;11.966;2022-10-16T05:54:55;100324.72;;;16.50;95.55
32733;BME280;11867;51.198;11.966;2022-10-16T05:59:57;100323.41;;;16.47;94.88
32733;BME280;11867;51.198;11.966;2022-10-16T06:05:02;100332.31;;;16.53;95.94
32733;BME280;11867;51.198;11.966;2022-10-16T06:10:05;100335.94;;;16.80;94.08
32733;BME280;11867;51.198;11.966;2022-10-16T06:15:08;100348.72;;;16.75;95.04
32733;BME280;11867;51.198;11.966;2022-10-16T06:20:12;100347.63;;;17.11;92.47
32733;BME280;11867;51.198;11.966;2022-10-16T06:25:15;100351.66;;;17.31;91.36
32733;BME280;11867;51.198;11.966;2022-10-16T06:30:17;100344.06;;;17.11;93.27
32733;BME280;11867;51.198;11.966;2022-10-16T06:35:21;100360.78;;;17.06;94.40
32733;BME280;11867;51.198;11.966;2022-10-16T06:40:25;100352.81;;;17.22;93.56
32733;BME280;11867;51.198;11.966;2022-10-16T06:45:27;100365.63;;;17.00;95.83
32733;BME280;11867;51.198;11.966;2022-10-16T06:50:31;100358.00;;;17.41;94.65
32733;BME280;11867;51.198;11.966;2022-10-16T06:55:34;100325.19;;;17.57;94.95
32733;BME280;11867;51.198;11.966;2022-10-16T07:00:37;100322.75;;;17.64;95.11
32733;BME280;11867;51.198;11.966;2022-10-16T07:05:43;100344.56;;;16.87;98.93
32733;BME280;11867;51.198;11.966;2022-10-16T07:10:46;100352.03;;;17.04;98.20
32733;BME280;11867;51.198;11.966;2022-10-16T07:15:48;100366.25;;;17.32;96.78
32733;BME280;11867;51.198;11.966;2022-10-16T07:20:52;100363.81;;;17.48;95.46
32733;BME280;11867;51.198;11.966;2022-10-16T07:25:55;100381.44;;;17.73;94.70
32733;BME280;11867;51.198;11.966;2022-10-16T07:31:00;100390.19;;;17.75;94.14
32733;BME280;11867;51.198;11.966;2022-10-16T07:36:05;100400.91;;;18.32;91.77
32733;BME280;11867;51.198;11.966;2022-10-16T07:41:14;100408.66;;;18.39;91.46
32733;BME280;11867;51.198;11.966;2022-10-16T07:46:18;100424.34;;;18.56;90.20
32733;BME280;11867;51.198;11.966;2022-10-16T07:51:24;100410.38;;;18.61;89.86
32733;BME280;11867;51.198;11.966;2022-10-16T07:56:27;100414.88;;;18.36;91.24
32733;BME280;11867;51.198;11.966;2022-10-16T08:01:30;100410.59;;;18.09;92.99
32733;BME280;11867;51.198;11.966;2022-10-16T08:06:36;100425.84;;;18.15;93.09
32733;BME280;11867;51.198;11.966;2022-10-16T08:11:39;100438.25;;;18.68;90.41
32733;BME280;11867;51.198;11.966;2022-10-16T08:16:42;100442.94;;;19.06;89.30
32733;BME280;11867;51.198;11.966;2022-10-16T08:21:48;100418.56;;;19.08;88.20
32733;BME280;11867;51.198;11.966;2022-10-16T08:26:53;100451.16;;;19.15;87.82
32733;BME280;11867;51.198;11.966;2022-10-16T08:31:56;100453.13;;;19.35;86.50
32733;BME280;11867;51.198;11.966;2022-10-16T08:37:00;100469.06;;;19.60;86.36
32733;BME280;11867;51.198;11.966;2022-10-16T08:42:12;100465.75;;;19.45;86.32
32733;BME280;11867;51.198;11.966;2022-10-16T08:47:23;100483.53;;;19.56;86.52
32733;BME280;11867;51.198;11.966;2022-10-16T08:52:34;100498.78;;;19.63;85.02
32733;BME280;11867;51.198;11.966;2022-10-16T08:57:37;100501.53;;;20.05;85.04
32733;BME280;11867;51.198;11.966;2022-10-16T09:02:45;100509.59;;;19.55;85.41
32733;BME280;11867;51.198;11.966;2022-10-16T09:08:01;100518.81;;;20.02;84.01
32733;BME280;11867;51.198;11.966;2022-10-16T09:13:18;100520.38;;;20.11;83.25
32733;BME280;11867;51.198;11.966;2022-10-16T09:18:29;100521.31;;;20.61;82.27
32733;BME280;11867;51.198;11.966;2022-10-16T09:23:36;100522.56;;;20.18;83.96
32733;BME280;11867;51.198;11.966;2022-10-16T09:28:40;100519.09;;;20.21;83.78
32733;BME280;11867;51.198;11.966;2022-10-16T09:33:50;100521.66;;;20.72;82.59
32733;BME280;11867;51.198;11.966;2022-10-16T09:39:04;100541.41;;;20.95;80.49
32733;BME280;11867;51.198;11.966;2022-10-16T09:44:18;100533.56;;;21.09;79.21
32733;BME280;11867;51.198;11.966;2022-10-16T09:49:23;100536.34;;;21.22;79.86
32733;BME280;11867;51.198;11.966;2022-10-16T09:54:27;100535.63;;;20.63;81.39
32733;BME280;11867;51.198;11.966;2022-10-16T09:59:31;100539.44;;;20.71;81.96
32733;BME280;11867;51.198;11.966;2022-10-16T10:04:38;100555.13;;;20.67;81.28
32733;BME280;11867;51.198;11.966;2022-10-16T10:09:44;100559.06;;;20.32;83.66
32733;BME280;11867;51.198;11.966;2022-10-16T10:14:49;100557.38;;;20.86;82.16
32733;BME280;11867;51.198;11.966;2022-10-16T10:19:54;100564.72;;;21.31;79.80
32733;BME280;11867;51.198;11.966;2022-10-16T10:25:14;100560.47;;;21.58;78.02
32733;BME280;11867;51.198;11.966;2022-10-16T10:30:23;100563.09;;;23.11;75.45
32733;BME280;11867;51.198;11.966;2022-10-16T10:35:32;100566.38;;;23.68;69.90
32733;BME280;11867;51.198;11.966;2022-10-16T10:40:48;100563.50;;;22.82;74.25
32733;BME280;11867;51.198;11.966;2022-10-16T10:45:56;100560.75;;;22.66;73.89
32733;BME280;11867;51.198;11.966;2022-10-16T10:51:02;100571.88;;;22.09;76.56
32733;BME280;11867;51.198;11.966;2022-10-16T10:56:16;100570.34;;;22.24;76.17
32733;BME280;11867;51.198;11.966;2022-10-16T11:01:31;100566.22;;;22.34;75.91
32733;BME280;11867;51.198;11.966;2022-10-16T11:06:41;100571.66;;;22.02;75.07
32733;BME280;11867;51.198;11.966;2022-10-16T11:11:50;100564.78;;;21.84;76.07
32733;BME280;11867;51.198;11.966;2022-10-16T11:16:57;100579.50;;;21.72;75.88
32733;BME280;11867;51.198;11.966;2022-10-16T11:22:03;100569.72;;;21.62;76.56
32733;BME280;11867;51.198;11.966;2022-10-16T11:27:12;100575.19;;;22.15;74.23
32733;BME280;11867;51.198;11.966;2022-10-16T11:32:22;100576.63;;;22.97;72.04
32733;BME280;11867;51.198;11.966;2022-10-16T11:37:30;100578.28;;;23.33;70.46
32733;BME280;11867;51.198;11.966;2022-10-16T11:42:38;100576.59;;;22.49;72.59
32733;BME280;11867;51.198;11.966;2022-10-16T11:47:45;100596.44;;;21.42;78.79
32733;BME280;11867;51.198;11.966;2022-10-16T11:53:04;100594.78;;;21.53;78.98
32733;BME280;11867;51.198;11.966;2022-10-16T11:58:21;100606.91;;;21.36;80.26
32733;BME280;11867;51.198;11.966;2022-10-16T12:03:26;100610.41;;;21.21;81.42
32733;BME280;11867;51.198;11.966;2022-10-16T12:08:33;100624.72;;;21.11;83.34
32733;BME280;11867;51.198;11.966;2022-10-16T12:13:40;100634.44;;;20.59;86.48
32733;BME280;11867;51.198;11.966;2022-10-16T12:18:45;100635.91;;;21.27;85.63
32733;BME280;11867;51.198;11.966;2022-10-16T12:23:50;100639.94;;;21.91;82.62
32733;BME280;11867;51.198;11.966;2022-10-16T12:28:55;100644.31;;;22.04;82.35
32733;BME280;11867;51.198;11.966;2022-10-16T12:33:59;100624.69;;;23.45;78.44
32733;BME280;11867;51.198;11.966;2022-10-16T12:39:03;100635.59;;;24.44;72.34
32733;BME280;11867;51.198;11.966;2022-10-16T12:44:24;100610.28;;;24.72;71.43
32733;BME280;11867;51.198;11.966;2022-10-16T12:49:35;100635.41;;;24.33;72.03
32733;BME280;11867;51.198;11.966;2022-10-16T12:54:39;100626.84;;;22.88;76.22
32733;BME280;11867;51.198;11.966;2022-10-16T12:59:46;100642.75;;;22.19;78.97
32733;BME280;11867;51.198;11.966;2022-10-16T13:05:08;100619.94;;;22.82;77.44
32733;BME280;11867;51.198;11.966;2022-10-16T13:10:21;100618.41;;;24.19;71.19
32733;BME280;11867;51.198;11.966;2022-10-16T13:15:37;100603.19;;;29.28;57.41
32733;BME280;11867;51.198;11.966;2022-10-16T13:20:56;100627.28;;;30.61;54.35
32733;BME280;11867;51.198;11.966;2022-10-16T13:26:13;100624.78;;;33.21;48.71
32733;BME280;11867;51.198;11.966;2022-10-16T13:31:20;100640.28;;;28.32;58.30
32733;BME280;11867;51.198;11.966;2022-10-16T13:36:26;100649.94;;;26.42;65.25
32733;BME280;11867;51.198;11.966;2022-10-16T13:41:29;100654.97;;;28.00;60.95
32733;BME280;11867;51.198;11.966;2022-10-16T13:46:33;100659.41;;;26.30;64.29
32733;BME280;11867;51.198;11.966;2022-10-16T13:51:36;100661.72;;;24.55;70.11
32733;BME280;11867;51.198;11.966;2022-10-16T13:56:39;100667.78;;;24.22;71.59
32733;BME280;11867;51.198;11.966;2022-10-16T14:01:44;100661.56;;;24.29;71.58
32733;BME280;11867;51.198;11.966;2022-10-16T14:06:50;100660.16;;;24.38;72.14
32733;BME280;11867;51.198;11.966;2022-10-16T14:11:55;100657.75;;;24.99;69.78
32733;BME280;11867;51.198;11.966;2022-10-16T14:17:02;100663.13;;;25.08;69.16
32733;BME280;11867;51.198;11.966;2022-10-16T14:22:23;100666.31;;;24.28;71.24
32733;BME280;11867;51.198;11.966;2022-10-16T14:27:31;100680.34;;;25.86;66.04
32733;BME280;11867;51.198;11.966;2022-10-16T14:32:35;100673.56;;;26.78;63.39
32733;BME280;11867;51.198;11.966;2022-10-16T14:37:38;100673.25;;;28.53;58.82
32733;BME280;11867;51.198;11.966;2022-10-16T14:42:43;100671.78;;;29.16;57.30
32733;BME280;11867;51.198;11.966;2022-10-16T14:47:50;100692.78;;;27.69;60.62
32733;BME280;11867;51.198;11.966;2022-10-16T14:52:55;100694.06;;;26.89;63.34
32733;BME280;11867;51.198;11.966;2022-10-16T14:57:58;100687.78;;;25.52;65.74
32733;BME280;11867;51.198;11.966;2022-10-16T15:03:02;100694.44;;;24.04;70.28
32733;BME280;11867;51.198;11.966;2022-10-16T15:08:05;100702.31;;;22.74;75.54
32733;BME280;11867;51.198;11.966;2022-10-16T15:13:11;100712.66;;;22.21;78.09
32733;BME280;11867;51.198;11.966;2022-10-16T15:18:16;100714.91;;;23.00;75.38
32733;BME280;11867;51.198;11.966;2022-10-16T15:23:22;100719.78;;;22.75;76.31
32733;BME280;11867;51.198;11.966;2022-10-16T15:28:30;100720.78;;;22.54;77.32
32733;BME280;11867;51.198;11.966;2022-10-16T15:33:34;100724.84;;;21.80;80.21
32733;BME280;11867;51.198;11.966;2022-10-16T15:38:40;100727.59;;;21.43;82.80
32733;BME280;11867;51.198;11.966;2022-10-16T15:43:43;100728.78;;;21.08;85.04
32733;BME280;11867;51.198;11.966;2022-10-16T15:48:48;100742.41;;;21.47;83.12
32733;BME280;11867;51.198;11.966;2022-10-16T15:53:51;100744.53;;;20.62;87.28
32733;BME280;11867;51.198;11.966;2022-10-16T15:58:54;100733.91;;;19.92;92.83
32733;BME280;11867;51.198;11.966;2022-10-16T16:03:59;100747.06;;;21.22;85.83
32733;BME280;11867;51.198;11.966;2022-10-16T16:09:15;100765.69;;;20.88;87.52
32733;BME280;11867;51.198;11.966;2022-10-16T16:14:18;100764.34;;;19.92;93.29
32733;BME280;11867;51.198;11.966;2022-10-16T16:19:22;100762.63;;;20.09;92.91
32733;BME280;11867;51.198;11.966;2022-10-16T16:24:25;100759.56;;;20.61;88.91
32733;BME280;11867;51.198;11.966;2022-10-16T16:29:27;100764.50;;;20.26;90.89
32733;BME280;11867;51.198;11.966;2022-10-16T16:34:32;100777.91;;;19.85;92.43
32733;BME280;11867;51.198;11.966;2022-10-16T16:39:34;100784.69;;;20.26;91.07
32733;BME280;11867;51.198;11.966;2022-10-16T16:44:37;100799.91;;;19.08;98.36
32733;BME280;11867;51.198;11.966;2022-10-16T16:49:41;100800.25;;;17.97;100.00
32733;BME280;11867;51.198;11.966;2022-10-16T16:54:44;100820.09;;;18.17;100.00
32733;BME280;11867;51.198;11.966;2022-10-16T16:59:52;100828.56;;;17.80;100.00
32733;BME280;11867;51.198;11.966;2022-10-16T17:04:56;100828.09;;;17.55;100.00
32733;BME280;11867;51.198;11.966;2022-10-16T17:10:00;100833.06;;;17.45;100.00
32733;BME280;11867;51.198;11.966;2022-10-16T17:15:03;100844.50;;;17.61;100.00
32733;BME280;11867;51.198;11.966;2022-10-16T17:20:08;100853.53;;;17.07;100.00
32733;BME280;11867;51.198;11.966;2022-10-16T17:25:11;100848.75;;;17.98;100.00
32733;BME280;11867;51.198;11.966;2022-10-16T17:30:14;100838.69;;;17.17;100.00
32733;BME280;11867;51.198;11.966;2022-10-16T17:35:18;100852.47;;;17.17;100.00
32733;BME280;11867;51.198;11.966;2022-10-16T17:40:21;100851.16;;;16.92;100.00
32733;BME280;11867;51.198;11.966;2022-10-16T17:45:25;100859.69;;;17.49;100.00
32733;BME280;11867;51.198;11.966;2022-10-16T17:50:30;100868.56;;;17.24;100.00
32733;BME280;11867;51.198;11.966;2022-10-16T17:55:37;100874.66;;;17.57;100.00
32733;BME280;11867;51.198;11.966;2022-10-16T18:00:39;100876.66;;;17.65;100.00
32733;BME280;11867;51.198;11.966;2022-10-16T18:05:43;100883.47;;;17.68;100.00
32733;BME280;11867;51.198;11.966;2022-10-16T18:10:46;100877.31;;;17.71;100.00
32733;BME280;11867;51.198;11.966;2022-10-16T18:15:58;100887.34;;;17.89;100.00
32733;BME280;11867;51.198;11.966;2022-10-16T18:21:04;100891.88;;;17.63;100.00
32733;BME280;11867;51.198;11.966;2022-10-16T18:26:08;100908.03;;;18.41;99.84
32733;BME280;11867;51.198;11.966;2022-10-16T18:31:13;100899.47;;;18.60;97.97
32733;BME280;11867;51.198;11.966;2022-10-16T18:36:20;100901.50;;;18.37;100.00
32733;BME280;11867;51.198;11.966;2022-10-16T18:41:26;100907.25;;;18.58;98.12
32733;BME280;11867;51.198;11.966;2022-10-16T18:46:29;100902.47;;;18.32;99.25
32733;BME280;11867;51.198;11.966;2022-10-16T18:51:35;100908.13;;;18.27;100.00
32733;BME280;11867;51.198;11.966;2022-10-16T18:56:38;100911.78;;;18.45;98.27
32733;BME280;11867;51.198;11.966;2022-10-16T19:01:41;100916.84;;;18.60;96.81
32733;BME280;11867;51.198;11.966;2022-10-16T19:06:49;100913.72;;;18.44;97.96
32733;BME280;11867;51.198;11.966;2022-10-16T19:11:53;100930.28;;;18.44;96.56
32733;BME280;11867;51.198;11.966;2022-10-16T19:16:55;100920.09;;;17.60;100.00
32733;BME280;11867;51.198;11.966;2022-10-16T19:22:01;100922.84;;;17.60;100.00
32733;BME280;11867;51.198;11.966;2022-10-16T19:27:14;100919.13;;;17.42;100.00
32733;BME280;11867;51.198;11.966;2022-10-16T19:32:17;100930.03;;;17.92;100.00
32733;BME280;11867;51.198;11.966;2022-10-16T19:37:21;100927.47;;;17.95;99.13
32733;BME280;11867;51.198;11.966;2022-10-16T19:42:26;100942.31;;;17.86;99.95
32733;BME280;11867;51.198;11.966;2022-10-16T19:47:30;100964.47;;;17.94;99.48
32733;BME280;11867;51.198;11.966;2022-10-16T19:52:34;100974.47;;;18.13;97.35
32733;BME280;11867;51.198;11.966;2022-10-16T19:57:37;100987.59;;;18.07;96.55
32733;BME280;11867;51.198;11.966;2022-10-16T20:02:40;100985.53;;;18.13;96.38
32733;BME280;11867;51.198;11.966;2022-10-16T20:07:44;100995.69;;;15.73;100.00
32733;BME280;11867;51.198;11.966;2022-10-16T20:12:50;100980.38;;;15.48;100.00
32733;BME280;11867;51.198;11.966;2022-10-16T20:17:55;100986.31;;;15.74;100.00
32733;BME280;11867;51.198;11.966;2022-10-16T20:22:59;100989.41;;;15.87;100.00
32733;BME280;11867;51.198;11.966;2022-10-16T20:28:02;100973.59;;;16.11;100.00
32733;BME280;11867;51.198;11.966;2022-10-16T20:33:05;100975.59;;;16.66;100.00
32733;BME280;11867;51.198;11.966;2022-10-16T20:38:10;100984.66;;;16.94;100.00
32733;BME280;11867;51.198;11.966;2022-10-16T20:43:15;100995.88;;;16.70;100.00
32733;BME280;11867;51.198;11.966;2022-10-16T20:48:19;101008.56;;;16.99;99.99
32733;BME280;11867;51.198;11.966;2022-10-16T20:53:23;101013.81;;;17.09;99.72
32733;BME280;11867;51.198;11.966;2022-10-16T20:58:25;101016.13;;;15.48;100.00
32733;BME280;11867;51.198;11.966;2022-10-16T21:03:28;101017.69;;;16.53;100.00
32733;BME280;11867;51.198;11.966;2022-10-16T21:08:35;101027.56;;;16.40;100.00
32733;BME280;11867;51.198;11.966;2022-10-16T21:13:38;101024.25;;;15.91;100.00
32733;BME280;11867;51.198;11.966;2022-10-16T21:18:40;101019.13;;;15.09;100.00
32733;BME280;11867;51.198;11.966;2022-10-16T21:23:46;101010.81;;;15.33;100.00
32733;BME280;11867;51.198;11.966;2022-10-16T21:28:49;100999.41;;;14.83;100.00
32733;BME280;11867;51.198;11.966;2022-10-16T21:33:52;101010.88;;;15.09;100.00
32733;BME280;11867;51.198;11.966;2022-10-16T21:39:00;101016.75;;;16.30;100.00
32733;BME280;11867;51.198;11.966;2022-10-16T21:44:04;101016.97;;;16.01;100.00
32733;BME280;11867;51.198;11.966;2022-10-16T21:49:10;101014.63;;;16.54;100.00
32733;BME280;11867;51.198;11.966;2022-10-16T21:54:16;101021.47;;;16.71;100.00
32733;BME280;11867;51.198;11.966;2022-10-16T21:59:20;101017.72;;;16.94;100.00
32733;BME280;11867;51.198;11.966;2022-10-16T22:04:22;101034.44;;;16.84;100.00
32733;BME280;11867;51.198;11.966;2022-10-16T22:09:26;101038.25;;;16.28;100.00
32733;BME280;11867;51.198;11.966;2022-10-16T22:14:29;101020.16;;;16.68;100.00
32733;BME280;11867;51.198;11.966;2022-10-16T22:19:31;101026.19;;;16.98;100.00
32733;BME280;11867;51.198;11.966;2022-10-16T22:24:36;101011.50;;;16.75;100.00
32733;BME280;11867;51.198;11.966;2022-10-16T22:29:38;101001.81;;;17.05;100.00
32733;BME280;11867;51.198;11.966;2022-10-16T22:34:41;101008.72;;;17.17;97.96
32733;BME280;11867;51.198;11.966;2022-10-16T22:39:45;101000.88;;;17.10;97.84
32733;BME280;11867;51.198;11.966;2022-10-16T22:44:48;101004.66;;;17.00;97.94
32733;BME280;11867;51.198;11.966;2022-10-16T22:49:50;101001.63;;;16.88;98.43
32733;BME280;11867;51.198;11.966;2022-10-16T22:54:56;101003.22;;;16.61;99.76
32733;BME280;11867;51.198;11.966;2022-10-16T22:59:58;101004.34;;;16.60;98.52
32733;BME280;11867;51.198;11.966;2022-10-16T23:05:01;101007.00;;;16.65;97.27
32733;BME280;11867;51.198;11.966;2022-10-16T23:10:07;101003.00;;;16.58;97.37
32733;BME280;11867;51.198;11.966;2022-10-16T23:15:10;101002.47;;;16.28;98.53
32733;BME280;11867;51.198;11.966;2022-10-16T23:20:14;101009.50;;;16.34;98.62
32733;BME280;11867;51.198;11.966;2022-10-16T23:25:18;100999.09;;;16.17;97.93
32733;BME280;11867;51.198;11.966;2022-10-16T23:30:20;101002.41;;;15.05;100.00
32733;BME280;11867;51.198;11.966;2022-10-16T23:35:23;101011.06;;;15.74;100.00
32733;BME280;11867;51.198;11.966;2022-10-16T23:40:27;101008.63;;;16.06;99.48
32733;BME280;11867;51.198;11.966;2022-10-16T23:45:30;101015.94;;;15.97;99.16
32733;BME280;11867;51.198;11.966;2022-10-16T23:50:33;101005.59;;;15.12;100.00
32733;BME280;11867;51.198;11.966;2022-10-16T23:55:37;101014.78;;;15.65;100.00
